sensor_id;sensor_type;location;lat;lon;timestamp;P1;durP1;ratioP1;P2;durP2;ratioP2
19589;SDS011;12231;42.782;23.388;2023-03-05T00:00:44;23.67;;;14.70;;
19589;SDS011;12231;42.782;23.388;2023-03-05T00:03:10;27.57;;;15.00;;
19589;SDS011;12231;42.782;23.388;2023-03-05T00:05:35;30.57;;;15.97;;
19589;SDS011;12231;42.782;23.388;2023-03-05T00:08:00;25.67;;;14.33;;
19589;SDS011;12231;42.782;23.388;2023-03-05T00:10:26;33.03;;;15.83;;
19589;SDS011;12231;42.782;23.388;2023-03-05T00:12:51;29.67;;;16.60;;
19589;SDS011;12231;42.782;23.388;2023-03-05T00:15:17;28.10;;;14.17;;
19589;SDS011;12231;42.782;23.388;2023-03-05T00:17:42;27.43;;;14.50;;
19589;SDS011;12231;42.782;23.388;2023-03-05T00:20:08;24.93;;;14.10;;
19589;SDS011;12231;42.782;23.388;2023-03-05T00:22:34;31.43;;;15.10;;
19589;SDS011;12231;42.782;23.388;2023-03-05T00:24:59;33.53;;;15.33;;
19589;SDS011;12231;42.782;23.388;2023-03-05T00:27:25;27.57;;;14.93;;
19589;SDS011;12231;42.782;23.388;2023-03-05T00:29:50;28.13;;;14.77;;
19589;SDS011;12231;42.782;23.388;2023-03-05T00:32:16;27.23;;;14.70;;
19589;SDS011;12231;42.782;23.388;2023-03-05T00:34:41;31.37;;;14.17;;
19589;SDS011;12231;42.782;23.388;2023-03-05T00:37:07;28.23;;;14.20;;
19589;SDS011;12231;42.782;23.388;2023-03-05T00:39:32;27.37;;;14.27;;
19589;SDS011;12231;42.782;23.388;2023-03-05T00:41:57;25.90;;;15.07;;
19589;SDS011;12231;42.782;23.388;2023-03-05T00:44:23;24.57;;;12.90;;
19589;SDS011;12231;42.782;23.388;2023-03-05T00:46:49;24.17;;;13.27;;
19589;SDS011;12231;42.782;23.388;2023-03-05T00:49:14;26.63;;;14.03;;
19589;SDS011;12231;42.782;23.388;2023-03-05T00:51:40;26.40;;;14.30;;
19589;SDS011;12231;42.782;23.388;2023-03-05T00:54:05;29.23;;;14.07;;
19589;SDS011;12231;42.782;23.388;2023-03-05T00:56:31;27.30;;;14.10;;
19589;SDS011;12231;42.782;23.388;2023-03-05T00:58:57;27.53;;;13.93;;
19589;SDS011;12231;42.782;23.388;2023-03-05T01:01:22;22.93;;;12.87;;
19589;SDS011;12231;42.782;23.388;2023-03-05T01:03:48;33.13;;;14.13;;
19589;SDS011;12231;42.782;23.388;2023-03-05T01:06:14;25.60;;;13.43;;
19589;SDS011;12231;42.782;23.388;2023-03-05T01:08:43;28.47;;;14.07;;
19589;SDS011;12231;42.782;23.388;2023-03-05T01:11:09;28.33;;;14.63;;
19589;SDS011;12231;42.782;23.388;2023-03-05T01:13:35;29.77;;;15.17;;
19589;SDS011;12231;42.782;23.388;2023-03-05T01:16:01;28.30;;;13.90;;
19589;SDS011;12231;42.782;23.388;2023-03-05T01:18:27;24.80;;;13.90;;
19589;SDS011;12231;42.782;23.388;2023-03-05T01:20:53;27.00;;;14.57;;
19589;SDS011;12231;42.782;23.388;2023-03-05T01:23:18;25.40;;;14.40;;
19589;SDS011;12231;42.782;23.388;2023-03-05T01:25:44;26.30;;;13.47;;
19589;SDS011;12231;42.782;23.388;2023-03-05T01:28:10;25.70;;;13.40;;
19589;SDS011;12231;42.782;23.388;2023-03-05T01:30:36;25.37;;;13.73;;
19589;SDS011;12231;42.782;23.388;2023-03-05T01:33:02;24.10;;;13.20;;
19589;SDS011;12231;42.782;23.388;2023-03-05T01:35:27;26.17;;;13.03;;
19589;SDS011;12231;42.782;23.388;2023-03-05T01:37:53;27.40;;;13.87;;
19589;SDS011;12231;42.782;23.388;2023-03-05T01:40:22;24.73;;;13.47;;
19589;SDS011;12231;42.782;23.388;2023-03-05T01:42:54;25.30;;;13.83;;
19589;SDS011;12231;42.782;23.388;2023-03-05T01:45:24;27.90;;;14.70;;
19589;SDS011;12231;42.782;23.388;2023-03-05T01:47:49;27.87;;;14.10;;
19589;SDS011;12231;42.782;23.388;2023-03-05T01:50:16;29.37;;;14.23;;
19589;SDS011;12231;42.782;23.388;2023-03-05T01:52:45;28.17;;;13.77;;
19589;SDS011;12231;42.782;23.388;2023-03-05T01:55:17;29.23;;;13.93;;
19589;SDS011;12231;42.782;23.388;2023-03-05T01:57:46;25.83;;;13.70;;
19589;SDS011;12231;42.782;23.388;2023-03-05T02:00:16;25.90;;;13.90;;
19589;SDS011;12231;42.782;23.388;2023-03-05T02:03:01;25.03;;;14.23;;
19589;SDS011;12231;42.782;23.388;2023-03-05T02:05:31;27.17;;;15.30;;
19589;SDS011;12231;42.782;23.388;2023-03-05T02:08:01;26.83;;;14.40;;
19589;SDS011;12231;42.782;23.388;2023-03-05T02:10:32;27.17;;;14.60;;
19589;SDS011;12231;42.782;23.388;2023-03-05T02:13:04;26.40;;;13.80;;
19589;SDS011;12231;42.782;23.388;2023-03-05T02:15:32;25.00;;;13.47;;
19589;SDS011;12231;42.782;23.388;2023-03-05T02:17:59;30.80;;;14.63;;
19589;SDS011;12231;42.782;23.388;2023-03-05T02:20:29;30.47;;;15.53;;
19589;SDS011;12231;42.782;23.388;2023-03-05T02:23:06;20.67;;;10.70;;
19589;SDS011;12231;42.782;23.388;2023-03-05T02:25:31;32.73;;;15.90;;
19589;SDS011;12231;42.782;23.388;2023-03-05T02:30:28;33.93;;;18.50;;
19589;SDS011;12231;42.782;23.388;2023-03-05T02:32:55;27.33;;;13.10;;
19589;SDS011;12231;42.782;23.388;2023-03-05T02:35:20;66.10;;;37.20;;
19589;SDS011;12231;42.782;23.388;2023-03-05T02:37:46;23.50;;;14.50;;
19589;SDS011;12231;42.782;23.388;2023-03-05T02:40:12;27.43;;;13.80;;
19589;SDS011;12231;42.782;23.388;2023-03-05T02:42:38;27.13;;;14.57;;
19589;SDS011;12231;42.782;23.388;2023-03-05T02:45:04;26.57;;;14.30;;
19589;SDS011;12231;42.782;23.388;2023-03-05T02:47:30;26.87;;;13.70;;
19589;SDS011;12231;42.782;23.388;2023-03-05T02:49:56;26.17;;;14.17;;
19589;SDS011;12231;42.782;23.388;2023-03-05T02:52:21;26.53;;;14.27;;
19589;SDS011;12231;42.782;23.388;2023-03-05T02:54:50;28.07;;;14.50;;
19589;SDS011;12231;42.782;23.388;2023-03-05T02:57:16;27.30;;;14.03;;
19589;SDS011;12231;42.782;23.388;2023-03-05T02:59:42;26.53;;;14.23;;
19589;SDS011;12231;42.782;23.388;2023-03-05T03:02:08;25.53;;;14.00;;
19589;SDS011;12231;42.782;23.388;2023-03-05T03:04:33;27.30;;;14.40;;
19589;SDS011;12231;42.782;23.388;2023-03-05T03:06:58;27.03;;;14.07;;
19589;SDS011;12231;42.782;23.388;2023-03-05T03:09:24;36.63;;;14.97;;
19589;SDS011;12231;42.782;23.388;2023-03-05T03:11:51;35.17;;;16.17;;
19589;SDS011;12231;42.782;23.388;2023-03-05T03:14:17;30.90;;;16.00;;
19589;SDS011;12231;42.782;23.388;2023-03-05T03:16:42;30.23;;;15.53;;
19589;SDS011;12231;42.782;23.388;2023-03-05T03:19:08;37.37;;;16.43;;
19589;SDS011;12231;42.782;23.388;2023-03-05T03:21:33;35.33;;;17.50;;
19589;SDS011;12231;42.782;23.388;2023-03-05T03:23:59;37.17;;;16.97;;
19589;SDS011;12231;42.782;23.388;2023-03-05T03:26:24;34.73;;;17.57;;
19589;SDS011;12231;42.782;23.388;2023-03-05T03:28:49;36.73;;;17.97;;
19589;SDS011;12231;42.782;23.388;2023-03-05T03:31:15;34.53;;;16.57;;
19589;SDS011;12231;42.782;23.388;2023-03-05T03:33:41;40.87;;;17.03;;
19589;SDS011;12231;42.782;23.388;2023-03-05T03:36:06;33.67;;;17.47;;
19589;SDS011;12231;42.782;23.388;2023-03-05T03:38:32;42.63;;;18.90;;
19589;SDS011;12231;42.782;23.388;2023-03-05T03:40:58;39.53;;;18.50;;
19589;SDS011;12231;42.782;23.388;2023-03-05T03:43:23;36.17;;;17.57;;
19589;SDS011;12231;42.782;23.388;2023-03-05T03:45:48;36.70;;;18.53;;
19589;SDS011;12231;42.782;23.388;2023-03-05T03:48:14;38.03;;;19.27;;
19589;SDS011;12231;42.782;23.388;2023-03-05T03:50:40;38.23;;;18.20;;
19589;SDS011;12231;42.782;23.388;2023-03-05T03:53:06;37.63;;;16.83;;
19589;SDS011;12231;42.782;23.388;2023-03-05T03:55:32;37.53;;;17.30;;
19589;SDS011;12231;42.782;23.388;2023-03-05T03:57:58;34.03;;;16.70;;
19589;SDS011;12231;42.782;23.388;2023-03-05T04:00:23;40.93;;;18.37;;
19589;SDS011;12231;42.782;23.388;2023-03-05T04:02:49;32.87;;;16.53;;
19589;SDS011;12231;42.782;23.388;2023-03-05T04:05:14;39.27;;;17.33;;
19589;SDS011;12231;42.782;23.388;2023-03-05T04:07:39;40.57;;;18.00;;
19589;SDS011;12231;42.782;23.388;2023-03-05T04:10:05;37.03;;;16.93;;
19589;SDS011;12231;42.782;23.388;2023-03-05T04:12:31;37.53;;;16.70;;
19589;SDS011;12231;42.782;23.388;2023-03-05T04:14:56;37.80;;;17.07;;
19589;SDS011;12231;42.782;23.388;2023-03-05T04:17:21;42.90;;;17.23;;
19589;SDS011;12231;42.782;23.388;2023-03-05T04:19:47;35.70;;;17.47;;
19589;SDS011;12231;42.782;23.388;2023-03-05T04:22:13;37.17;;;18.57;;
19589;SDS011;12231;42.782;23.388;2023-03-05T04:24:40;37.23;;;17.67;;
19589;SDS011;12231;42.782;23.388;2023-03-05T04:27:06;40.57;;;19.00;;
19589;SDS011;12231;42.782;23.388;2023-03-05T04:29:32;36.70;;;16.67;;
19589;SDS011;12231;42.782;23.388;2023-03-05T04:31:58;37.07;;;17.60;;
19589;SDS011;12231;42.782;23.388;2023-03-05T04:34:23;35.40;;;16.87;;
19589;SDS011;12231;42.782;23.388;2023-03-05T04:36:49;36.97;;;18.30;;
19589;SDS011;12231;42.782;23.388;2023-03-05T04:39:14;40.60;;;18.03;;
19589;SDS011;12231;42.782;23.388;2023-03-05T04:41:40;35.03;;;17.37;;
19589;SDS011;12231;42.782;23.388;2023-03-05T04:44:06;32.67;;;16.37;;
19589;SDS011;12231;42.782;23.388;2023-03-05T04:46:31;34.60;;;15.87;;
19589;SDS011;12231;42.782;23.388;2023-03-05T04:48:57;34.50;;;17.17;;
19589;SDS011;12231;42.782;23.388;2023-03-05T04:51:23;36.67;;;17.87;;
19589;SDS011;12231;42.782;23.388;2023-03-05T04:53:49;30.87;;;16.27;;
19589;SDS011;12231;42.782;23.388;2023-03-05T04:56:15;36.17;;;17.73;;
19589;SDS011;12231;42.782;23.388;2023-03-05T04:58:40;33.23;;;16.93;;
19589;SDS011;12231;42.782;23.388;2023-03-05T05:01:06;31.37;;;15.80;;
19589;SDS011;12231;42.782;23.388;2023-03-05T05:03:31;33.70;;;16.53;;
19589;SDS011;12231;42.782;23.388;2023-03-05T05:05:58;38.67;;;16.97;;
19589;SDS011;12231;42.782;23.388;2023-03-05T05:08:25;31.00;;;16.00;;
19589;SDS011;12231;42.782;23.388;2023-03-05T05:10:57;36.23;;;17.40;;
19589;SDS011;12231;42.782;23.388;2023-03-05T05:13:24;33.90;;;16.17;;
19589;SDS011;12231;42.782;23.388;2023-03-05T05:15:50;32.90;;;15.07;;
19589;SDS011;12231;42.782;23.388;2023-03-05T05:18:15;31.50;;;16.37;;
19589;SDS011;12231;42.782;23.388;2023-03-05T05:20:41;26.03;;;14.57;;
19589;SDS011;12231;42.782;23.388;2023-03-05T05:23:06;31.53;;;15.27;;
19589;SDS011;12231;42.782;23.388;2023-03-05T05:25:32;31.70;;;16.00;;
19589;SDS011;12231;42.782;23.388;2023-03-05T05:27:57;40.90;;;16.60;;
19589;SDS011;12231;42.782;23.388;2023-03-05T05:30:22;33.17;;;16.23;;
19589;SDS011;12231;42.782;23.388;2023-03-05T05:32:48;27.83;;;14.40;;
19589;SDS011;12231;42.782;23.388;2023-03-05T05:35:13;32.17;;;15.37;;
19589;SDS011;12231;42.782;23.388;2023-03-05T05:37:39;31.70;;;14.80;;
19589;SDS011;12231;42.782;23.388;2023-03-05T05:40:04;31.77;;;14.80;;
19589;SDS011;12231;42.782;23.388;2023-03-05T05:42:31;27.37;;;14.57;;
19589;SDS011;12231;42.782;23.388;2023-03-05T05:44:57;38.47;;;15.67;;
19589;SDS011;12231;42.782;23.388;2023-03-05T05:47:23;33.60;;;14.63;;
19589;SDS011;12231;42.782;23.388;2023-03-05T05:49:49;28.70;;;14.67;;
19589;SDS011;12231;42.782;23.388;2023-03-05T05:52:15;34.20;;;14.70;;
19589;SDS011;12231;42.782;23.388;2023-03-05T05:54:40;30.30;;;14.77;;
19589;SDS011;12231;42.782;23.388;2023-03-05T05:57:06;32.37;;;15.80;;
19589;SDS011;12231;42.782;23.388;2023-03-05T05:59:31;28.70;;;14.90;;
19589;SDS011;12231;42.782;23.388;2023-03-05T06:01:57;27.70;;;12.63;;
19589;SDS011;12231;42.782;23.388;2023-03-05T06:04:23;29.73;;;14.53;;
19589;SDS011;12231;42.782;23.388;2023-03-05T06:06:48;30.87;;;15.47;;
19589;SDS011;12231;42.782;23.388;2023-03-05T06:09:14;31.70;;;14.47;;
19589;SDS011;12231;42.782;23.388;2023-03-05T06:11:39;26.73;;;13.77;;
19589;SDS011;12231;42.782;23.388;2023-03-05T06:14:05;29.80;;;14.97;;
19589;SDS011;12231;42.782;23.388;2023-03-05T06:16:32;27.37;;;14.13;;
19589;SDS011;12231;42.782;23.388;2023-03-05T06:18:58;27.40;;;14.57;;
19589;SDS011;12231;42.782;23.388;2023-03-05T06:21:28;28.57;;;14.00;;
19589;SDS011;12231;42.782;23.388;2023-03-05T06:23:54;24.73;;;13.57;;
19589;SDS011;12231;42.782;23.388;2023-03-05T06:26:20;27.17;;;13.97;;
19589;SDS011;12231;42.782;23.388;2023-03-05T06:28:46;30.30;;;13.93;;
19589;SDS011;12231;42.782;23.388;2023-03-05T06:31:16;33.10;;;14.87;;
19589;SDS011;12231;42.782;23.388;2023-03-05T06:33:45;25.63;;;11.30;;
19589;SDS011;12231;42.782;23.388;2023-03-05T06:36:12;27.13;;;14.33;;
19589;SDS011;12231;42.782;23.388;2023-03-05T06:38:40;27.60;;;15.53;;
19589;SDS011;12231;42.782;23.388;2023-03-05T06:41:07;34.13;;;15.73;;
19589;SDS011;12231;42.782;23.388;2023-03-05T06:43:36;26.67;;;14.07;;
19589;SDS011;12231;42.782;23.388;2023-03-05T06:46:04;25.97;;;13.03;;
19589;SDS011;12231;42.782;23.388;2023-03-05T06:48:31;30.70;;;14.73;;
19589;SDS011;12231;42.782;23.388;2023-03-05T06:50:56;27.47;;;14.70;;
19589;SDS011;12231;42.782;23.388;2023-03-05T06:53:25;28.10;;;13.27;;
19589;SDS011;12231;42.782;23.388;2023-03-05T06:55:51;28.23;;;14.57;;
19589;SDS011;12231;42.782;23.388;2023-03-05T06:58:17;28.67;;;14.73;;
19589;SDS011;12231;42.782;23.388;2023-03-05T07:00:43;27.60;;;13.67;;
19589;SDS011;12231;42.782;23.388;2023-03-05T07:03:08;33.40;;;17.40;;
19589;SDS011;12231;42.782;23.388;2023-03-05T07:05:38;32.80;;;16.77;;
19589;SDS011;12231;42.782;23.388;2023-03-05T07:08:04;33.83;;;14.87;;
19589;SDS011;12231;42.782;23.388;2023-03-05T07:10:31;31.63;;;14.50;;
19589;SDS011;12231;42.782;23.388;2023-03-05T07:12:56;22.93;;;12.43;;
19589;SDS011;12231;42.782;23.388;2023-03-05T07:15:22;24.97;;;13.63;;
19589;SDS011;12231;42.782;23.388;2023-03-05T07:17:48;27.27;;;14.30;;
19589;SDS011;12231;42.782;23.388;2023-03-05T07:20:13;25.13;;;13.17;;
19589;SDS011;12231;42.782;23.388;2023-03-05T07:22:39;25.33;;;13.00;;
19589;SDS011;12231;42.782;23.388;2023-03-05T07:25:04;23.27;;;13.00;;
19589;SDS011;12231;42.782;23.388;2023-03-05T07:27:33;27.00;;;13.67;;
19589;SDS011;12231;42.782;23.388;2023-03-05T07:29:59;23.57;;;12.23;;
19589;SDS011;12231;42.782;23.388;2023-03-05T07:32:25;25.60;;;14.40;;
19589;SDS011;12231;42.782;23.388;2023-03-05T07:34:50;23.37;;;12.80;;
19589;SDS011;12231;42.782;23.388;2023-03-05T07:37:15;24.30;;;12.63;;
19589;SDS011;12231;42.782;23.388;2023-03-05T07:39:41;24.50;;;12.27;;
19589;SDS011;12231;42.782;23.388;2023-03-05T07:42:06;25.90;;;13.17;;
19589;SDS011;12231;42.782;23.388;2023-03-05T07:44:32;28.33;;;14.70;;
19589;SDS011;12231;42.782;23.388;2023-03-05T07:46:57;27.53;;;13.20;;
19589;SDS011;12231;42.782;23.388;2023-03-05T07:49:22;25.17;;;12.97;;
19589;SDS011;12231;42.782;23.388;2023-03-05T07:51:48;22.38;;;13.10;;
19589;SDS011;12231;42.782;23.388;2023-03-05T07:54:13;20.75;;;11.90;;
19589;SDS011;12231;42.782;23.388;2023-03-05T07:56:39;22.63;;;11.73;;
19589;SDS011;12231;42.782;23.388;2023-03-05T07:59:05;22.45;;;12.93;;
19589;SDS011;12231;42.782;23.388;2023-03-05T08:01:33;27.20;;;14.45;;
19589;SDS011;12231;42.782;23.388;2023-03-05T08:03:59;28.70;;;15.03;;
19589;SDS011;12231;42.782;23.388;2023-03-05T08:06:24;29.03;;;15.67;;
19589;SDS011;12231;42.782;23.388;2023-03-05T08:08:50;20.37;;;11.67;;
19589;SDS011;12231;42.782;23.388;2023-03-05T08:11:15;19.97;;;11.67;;
19589;SDS011;12231;42.782;23.388;2023-03-05T08:13:41;24.40;;;12.90;;
19589;SDS011;12231;42.782;23.388;2023-03-05T08:16:15;22.07;;;12.30;;
19589;SDS011;12231;42.782;23.388;2023-03-05T08:18:42;24.40;;;12.90;;
19589;SDS011;12231;42.782;23.388;2023-03-05T08:21:17;24.80;;;12.93;;
19589;SDS011;12231;42.782;23.388;2023-03-05T08:23:45;22.73;;;13.27;;
19589;SDS011;12231;42.782;23.388;2023-03-05T08:26:11;23.43;;;12.73;;
19589;SDS011;12231;42.782;23.388;2023-03-05T08:28:38;24.43;;;11.37;;
19589;SDS011;12231;42.782;23.388;2023-03-05T08:31:07;20.00;;;11.00;;
19589;SDS011;12231;42.782;23.388;2023-03-05T08:33:34;26.33;;;14.20;;
19589;SDS011;12231;42.782;23.388;2023-03-05T08:35:59;18.03;;;11.53;;
19589;SDS011;12231;42.782;23.388;2023-03-05T08:38:24;22.93;;;12.00;;
19589;SDS011;12231;42.782;23.388;2023-03-05T08:40:50;21.30;;;11.70;;
19589;SDS011;12231;42.782;23.388;2023-03-05T08:43:16;24.05;;;12.70;;
19589;SDS011;12231;42.782;23.388;2023-03-05T08:45:41;22.02;;;12.30;;
19589;SDS011;12231;42.782;23.388;2023-03-05T08:48:07;18.30;;;11.52;;
19589;SDS011;12231;42.782;23.388;2023-03-05T08:50:32;25.17;;;12.20;;
19589;SDS011;12231;42.782;23.388;2023-03-05T08:53:00;21.45;;;12.50;;
19589;SDS011;12231;42.782;23.388;2023-03-05T08:55:26;21.58;;;12.63;;
19589;SDS011;12231;42.782;23.388;2023-03-05T08:57:51;20.17;;;12.07;;
19589;SDS011;12231;42.782;23.388;2023-03-05T09:00:17;22.20;;;12.90;;
19589;SDS011;12231;42.782;23.388;2023-03-05T09:02:42;25.40;;;14.45;;
19589;SDS011;12231;42.782;23.388;2023-03-05T09:05:08;22.50;;;11.85;;
19589;SDS011;12231;42.782;23.388;2023-03-05T09:07:34;19.25;;;11.98;;
19589;SDS011;12231;42.782;23.388;2023-03-05T09:09:59;21.10;;;13.43;;
19589;SDS011;12231;42.782;23.388;2023-03-05T09:12:25;28.45;;;14.65;;
19589;SDS011;12231;42.782;23.388;2023-03-05T09:14:52;47.95;;;21.27;;
19589;SDS011;12231;42.782;23.388;2023-03-05T09:17:18;22.33;;;13.05;;
19589;SDS011;12231;42.782;23.388;2023-03-05T09:19:44;23.63;;;13.05;;
19589;SDS011;12231;42.782;23.388;2023-03-05T09:22:09;29.15;;;14.85;;
19589;SDS011;12231;42.782;23.388;2023-03-05T09:24:35;24.08;;;13.50;;
19589;SDS011;12231;42.782;23.388;2023-03-05T09:27:00;26.37;;;14.17;;
19589;SDS011;12231;42.782;23.388;2023-03-05T09:29:26;42.75;;;19.05;;
19589;SDS011;12231;42.782;23.388;2023-03-05T09:31:52;26.08;;;14.00;;
19589;SDS011;12231;42.782;23.388;2023-03-05T09:34:18;33.72;;;16.38;;
19589;SDS011;12231;42.782;23.388;2023-03-05T09:36:44;30.23;;;16.60;;
19589;SDS011;12231;42.782;23.388;2023-03-05T09:39:09;23.17;;;13.37;;
19589;SDS011;12231;42.782;23.388;2023-03-05T09:44:29;23.57;;;14.67;;
19589;SDS011;12231;42.782;23.388;2023-03-05T09:49:50;20.60;;;10.97;;
19589;SDS011;12231;42.782;23.388;2023-03-05T09:52:31;23.57;;;11.83;;
19589;SDS011;12231;42.782;23.388;2023-03-05T09:54:58;22.47;;;12.83;;
19589;SDS011;12231;42.782;23.388;2023-03-05T09:57:28;24.03;;;11.63;;
19589;SDS011;12231;42.782;23.388;2023-03-05T10:00:10;19.43;;;11.33;;
19589;SDS011;12231;42.782;23.388;2023-03-05T10:02:47;19.97;;;12.23;;
19589;SDS011;12231;42.782;23.388;2023-03-05T10:07:54;20.57;;;12.23;;
19589;SDS011;12231;42.782;23.388;2023-03-05T10:18:56;20.27;;;11.33;;
19589;SDS011;12231;42.782;23.388;2023-03-05T10:29:54;22.00;;;12.07;;
19589;SDS011;12231;42.782;23.388;2023-03-05T10:33:11;25.83;;;14.40;;
19589;SDS011;12231;42.782;23.388;2023-03-05T10:37:47;24.77;;;12.10;;
19589;SDS011;12231;42.782;23.388;2023-03-05T10:40:17;21.00;;;12.03;;
19589;SDS011;12231;42.782;23.388;2023-03-05T10:45:20;24.57;;;12.17;;
19589;SDS011;12231;42.782;23.388;2023-03-05T10:47:53;20.17;;;10.83;;
19589;SDS011;12231;42.782;23.388;2023-03-05T10:50:24;19.63;;;9.83;;
19589;SDS011;12231;42.782;23.388;2023-03-05T10:53:13;15.70;;;9.40;;
19589;SDS011;12231;42.782;23.388;2023-03-05T10:55:44;15.87;;;9.70;;
19589;SDS011;12231;42.782;23.388;2023-03-05T10:58:13;16.37;;;9.77;;
19589;SDS011;12231;42.782;23.388;2023-03-05T11:00:40;17.00;;;9.60;;
19589;SDS011;12231;42.782;23.388;2023-03-05T11:03:47;15.93;;;8.77;;
19589;SDS011;12231;42.782;23.388;2023-03-05T11:06:13;16.07;;;9.50;;
19589;SDS011;12231;42.782;23.388;2023-03-05T11:08:38;18.17;;;9.23;;
19589;SDS011;12231;42.782;23.388;2023-03-05T11:13:30;15.60;;;8.53;;
19589;SDS011;12231;42.782;23.388;2023-03-05T11:16:01;17.50;;;9.52;;
19589;SDS011;12231;42.782;23.388;2023-03-05T11:18:29;16.83;;;10.40;;
19589;SDS011;12231;42.782;23.388;2023-03-05T11:21:06;16.05;;;9.77;;
19589;SDS011;12231;42.782;23.388;2023-03-05T11:23:43;18.30;;;10.23;;
19589;SDS011;12231;42.782;23.388;2023-03-05T11:26:27;17.50;;;10.27;;
19589;SDS011;12231;42.782;23.388;2023-03-05T11:41:33;16.27;;;10.53;;
19589;SDS011;12231;42.782;23.388;2023-03-05T11:44:14;17.73;;;10.67;;
19589;SDS011;12231;42.782;23.388;2023-03-05T11:46:49;15.30;;;9.87;;
19589;SDS011;12231;42.782;23.388;2023-03-05T11:49:23;18.02;;;11.50;;
19589;SDS011;12231;42.782;23.388;2023-03-05T11:51:56;18.52;;;11.15;;
19589;SDS011;12231;42.782;23.388;2023-03-05T11:54:51;20.08;;;11.02;;
19589;SDS011;12231;42.782;23.388;2023-03-05T11:57:18;17.67;;;11.35;;
19589;SDS011;12231;42.782;23.388;2023-03-05T11:59:46;17.00;;;10.07;;
19589;SDS011;12231;42.782;23.388;2023-03-05T12:02:17;16.33;;;10.48;;
19589;SDS011;12231;42.782;23.388;2023-03-05T12:04:45;15.55;;;9.55;;
19589;SDS011;12231;42.782;23.388;2023-03-05T12:07:12;16.23;;;9.93;;
19589;SDS011;12231;42.782;23.388;2023-03-05T12:09:43;16.10;;;9.75;;
19589;SDS011;12231;42.782;23.388;2023-03-05T12:15:11;17.15;;;9.95;;
19589;SDS011;12231;42.782;23.388;2023-03-05T12:17:38;17.55;;;11.00;;
19589;SDS011;12231;42.782;23.388;2023-03-05T12:20:17;15.80;;;9.43;;
19589;SDS011;12231;42.782;23.388;2023-03-05T12:23:04;14.13;;;10.73;;
19589;SDS011;12231;42.782;23.388;2023-03-05T12:25:34;15.32;;;9.02;;
19589;SDS011;12231;42.782;23.388;2023-03-05T12:28:51;13.43;;;9.20;;
19589;SDS011;12231;42.782;23.388;2023-03-05T12:37:01;16.42;;;9.27;;
19589;SDS011;12231;42.782;23.388;2023-03-05T12:55:33;15.73;;;8.82;;
19589;SDS011;12231;42.782;23.388;2023-03-05T13:00:44;20.30;;;10.27;;
19589;SDS011;12231;42.782;23.388;2023-03-05T13:03:33;17.67;;;9.90;;
19589;SDS011;12231;42.782;23.388;2023-03-05T13:06:03;28.50;;;13.70;;
19589;SDS011;12231;42.782;23.388;2023-03-05T13:08:31;14.05;;;8.45;;
19589;SDS011;12231;42.782;23.388;2023-03-05T13:11:05;13.18;;;7.90;;
19589;SDS011;12231;42.782;23.388;2023-03-05T13:13:40;14.90;;;9.00;;
19589;SDS011;12231;42.782;23.388;2023-03-05T13:16:18;20.65;;;11.15;;
19589;SDS011;12231;42.782;23.388;2023-03-05T13:18:46;16.85;;;10.43;;
19589;SDS011;12231;42.782;23.388;2023-03-05T13:21:14;16.27;;;9.55;;
19589;SDS011;12231;42.782;23.388;2023-03-05T13:23:48;19.60;;;9.43;;
19589;SDS011;12231;42.782;23.388;2023-03-05T13:26:22;22.33;;;12.77;;
19589;SDS011;12231;42.782;23.388;2023-03-05T13:29:15;17.38;;;10.27;;
19589;SDS011;12231;42.782;23.388;2023-03-05T13:32:16;18.55;;;10.68;;
19589;SDS011;12231;42.782;23.388;2023-03-05T13:34:43;19.55;;;9.95;;
19589;SDS011;12231;42.782;23.388;2023-03-05T13:37:18;19.30;;;9.70;;
19589;SDS011;12231;42.782;23.388;2023-03-05T13:39:47;16.60;;;10.13;;
19589;SDS011;12231;42.782;23.388;2023-03-05T13:44:57;18.93;;;10.67;;
19589;SDS011;12231;42.782;23.388;2023-03-05T13:47:24;23.67;;;13.60;;
19589;SDS011;12231;42.782;23.388;2023-03-05T13:49:59;21.10;;;11.87;;
19589;SDS011;12231;42.782;23.388;2023-03-05T13:52:34;18.23;;;11.43;;
19589;SDS011;12231;42.782;23.388;2023-03-05T13:55:03;16.08;;;10.57;;
19589;SDS011;12231;42.782;23.388;2023-03-05T14:03:06;18.13;;;10.37;;
19589;SDS011;12231;42.782;23.388;2023-03-05T14:05:52;17.63;;;10.73;;
19589;SDS011;12231;42.782;23.388;2023-03-05T14:08:22;23.80;;;10.67;;
19589;SDS011;12231;42.782;23.388;2023-03-05T14:10:50;21.83;;;11.60;;
19589;SDS011;12231;42.782;23.388;2023-03-05T14:13:22;18.60;;;12.20;;
19589;SDS011;12231;42.782;23.388;2023-03-05T14:18:37;18.47;;;11.87;;
19589;SDS011;12231;42.782;23.388;2023-03-05T14:21:09;20.53;;;10.53;;
19589;SDS011;12231;42.782;23.388;2023-03-05T14:26:37;21.30;;;11.07;;
19589;SDS011;12231;42.782;23.388;2023-03-05T14:29:00;17.83;;;10.70;;
19589;SDS011;12231;42.782;23.388;2023-03-05T14:31:55;26.33;;;13.83;;
19589;SDS011;12231;42.782;23.388;2023-03-05T14:36:51;22.17;;;14.60;;
19589;SDS011;12231;42.782;23.388;2023-03-05T14:39:35;24.40;;;12.90;;
19589;SDS011;12231;42.782;23.388;2023-03-05T14:42:29;18.97;;;11.33;;
19589;SDS011;12231;42.782;23.388;2023-03-05T14:44:55;21.83;;;12.37;;
19589;SDS011;12231;42.782;23.388;2023-03-05T14:47:23;20.30;;;11.43;;
19589;SDS011;12231;42.782;23.388;2023-03-05T14:49:49;23.53;;;11.53;;
19589;SDS011;12231;42.782;23.388;2023-03-05T14:52:16;22.07;;;11.83;;
19589;SDS011;12231;42.782;23.388;2023-03-05T14:54:43;25.83;;;11.90;;
19589;SDS011;12231;42.782;23.388;2023-03-05T14:57:12;18.77;;;10.80;;
19589;SDS011;12231;42.782;23.388;2023-03-05T14:59:50;27.10;;;16.67;;
19589;SDS011;12231;42.782;23.388;2023-03-05T15:02:17;53.60;;;29.80;;
19589;SDS011;12231;42.782;23.388;2023-03-05T15:04:44;34.57;;;23.10;;
19589;SDS011;12231;42.782;23.388;2023-03-05T15:07:21;24.70;;;16.00;;
19589;SDS011;12231;42.782;23.388;2023-03-05T15:09:51;25.03;;;13.87;;
19589;SDS011;12231;42.782;23.388;2023-03-05T15:12:17;23.47;;;12.17;;
19589;SDS011;12231;42.782;23.388;2023-03-05T15:14:43;18.37;;;11.10;;
19589;SDS011;12231;42.782;23.388;2023-03-05T15:17:15;22.73;;;14.37;;
19589;SDS011;12231;42.782;23.388;2023-03-05T15:19:45;22.77;;;11.67;;
19589;SDS011;12231;42.782;23.388;2023-03-05T15:22:12;25.43;;;13.67;;
19589;SDS011;12231;42.782;23.388;2023-03-05T15:24:37;23.43;;;13.10;;
19589;SDS011;12231;42.782;23.388;2023-03-05T15:27:03;20.70;;;13.40;;
19589;SDS011;12231;42.782;23.388;2023-03-05T15:29:29;32.93;;;17.57;;
19589;SDS011;12231;42.782;23.388;2023-03-05T15:31:55;37.20;;;22.47;;
19589;SDS011;12231;42.782;23.388;2023-03-05T15:34:20;25.57;;;16.23;;
19589;SDS011;12231;42.782;23.388;2023-03-05T15:36:46;28.97;;;18.03;;
19589;SDS011;12231;42.782;23.388;2023-03-05T15:39:11;21.57;;;10.50;;
19589;SDS011;12231;42.782;23.388;2023-03-05T15:41:37;22.37;;;15.07;;
19589;SDS011;12231;42.782;23.388;2023-03-05T15:44:02;34.37;;;17.93;;
19589;SDS011;12231;42.782;23.388;2023-03-05T15:46:27;22.27;;;12.17;;
19589;SDS011;12231;42.782;23.388;2023-03-05T15:48:53;24.47;;;13.80;;